Time;durP1;ratioP1;P1;durP2;ratioP2;P2;SDS_P1;SDS_P2;PMS_P1;PMS_P2;Temp;Humidity;BMP_temperature;BMP_pressure;BME280_temperature;BME280_humidity;BME280_pressure;Samples;Min_cycle;Max_cycle;Signal;HPM_P1;HPM_P2
2021/11/07 00:04:11;;;;;;;24.60;4.53;;;;;;;9.36;100.00;99712.19;4839570;29;20041;-78
2021/11/07 00:06:39;;;;;;;22.60;3.75;;;;;;;9.40;100.00;99718.75;4843648;29;20042;-79
2021/11/07 00:09:28;;;;;;;20.02;3.58;;;;;;;9.43;100.00;99726.38;4827016;29;20061;-78
2021/11/07 00:11:57;;;;;;;33.80;4.40;;;;;;;9.36;100.00;99713.00;4836767;29;20437;-78
2021/11/07 00:14:23;;;;;;;22.08;4.40;;;;;;;9.45;100.00;99718.94;4859324;29;20126;-78
2021/11/07 00:16:50;;;;;;;20.88;3.95;;;;;;;9.47;100.00;99705.28;4848271;29;20177;-78
2021/11/07 00:19:31;;;;;;;29.75;4.03;;;;;;;9.50;100.00;99718.28;4825738;29;20026;-78
2021/11/07 00:22:21;;;;;;;32.20;4.50;;;;;;;9.49;100.00;99706.72;4832406;29;20033;-78
2021/11/07 00:27:46;;;;;;;26.40;4.82;;;;;;;9.52;100.00;99700.91;4815783;29;20045;-78
2021/11/07 00:38:18;;;;;;;;;;;;;;;9.53;100.00;99656.06;4861711;29;20048;-78
2021/11/07 00:41:50;;;;;;;29.15;4.88;;;;;;;9.49;100.00;99644.97;4861307;29;19919;-78
2021/11/07 00:46:44;;;;;;;27.60;5.05;;;;;;;9.57;100.00;99633.94;4839783;29;20053;-78
2021/11/07 00:49:14;;;;;;;31.00;4.85;;;;;;;9.53;100.00;99613.13;4858060;29;20413;-78
2021/11/07 00:54:28;;;;;;;33.10;5.05;;;;;;;9.64;100.00;99617.78;4842934;29;20422;-77
2021/11/07 00:57:00;;;;;;;24.60;4.60;;;;;;;9.61;100.00;99615.53;4843152;29;20504;-77
2021/11/07 01:02:14;;;;;;;23.48;4.00;;;;;;;9.66;100.00;99621.03;4842991;29;20118;-78
2021/11/07 01:04:45;;;;;;;25.80;4.18;;;;;;;9.67;100.00;99611.97;4829379;29;20109;-79
2021/11/07 01:07:11;;;;;;;29.65;4.43;;;;;;;9.68;100.00;99597.47;4861651;29;20129;-78
2021/11/07 01:09:38;;;;;;;29.80;4.60;;;;;;;9.70;100.00;99591.88;4845277;29;20048;-78
2021/11/07 01:12:04;;;;;;;26.42;4.57;;;;;;;9.71;100.00;99583.59;4860735;29;20037;-78
2021/11/07 01:14:29;;;;;;;26.13;4.18;;;;;;;9.73;100.00;99578.81;4811460;29;20030;-78
2021/11/07 01:16:54;;;;;;;32.30;4.40;;;;;;;9.50;100.00;99531.13;4841650;29;20034;-78
2021/11/07 01:19:20;;;;;;;20.10;3.80;;;;;;;9.51;100.00;99529.28;4841879;29;20030;-78
2021/11/07 01:21:47;;;;;;;28.13;3.75;;;;;;;9.73;100.00;99559.19;4855050;29;20033;-78
2021/11/07 01:26:47;;;;;;;18.27;3.67;;;;;;;9.76;100.00;99550.69;4858082;29;20124;-78
2021/11/07 01:29:18;;;;;;;21.17;3.45;;;;;;;9.75;100.00;99544.50;4843108;29;20065;-78
2021/11/07 01:31:45;;;;;;;16.67;3.10;;;;;;;9.77;100.00;99541.59;4860492;29;20175;-78
2021/11/07 01:34:25;;;;;;;24.98;3.80;;;;;;;9.77;100.00;99534.34;4863354;29;20026;-78
2021/11/07 01:36:58;;;;;;;22.33;3.20;;;;;;;9.77;100.00;99531.66;4842931;29;20064;-78
2021/11/07 01:39:37;;;;;;;18.70;2.85;;;;;;;9.77;100.00;99526.31;4841578;29;20057;-78
2021/11/07 01:44:51;;;;;;;28.80;3.65;;;;;;;9.81;100.00;99530.16;4838474;29;20041;-78
2021/11/07 01:47:18;;;;;;;17.10;2.95;;;;;;;9.83;100.00;99527.25;4824668;29;20034;-78
2021/11/07 01:49:44;;;;;;;19.73;3.22;;;;;;;9.82;100.00;99526.44;4842225;29;20057;-78
2021/11/07 01:52:11;;;;;;;25.10;3.78;;;;;;;9.85;100.00;99517.09;4842191;29;20037;-78
2021/11/07 01:57:26;;;;;;;26.98;3.08;;;;;;;9.86;100.00;99511.50;4842948;29;20076;-78
2021/11/07 01:59:57;;;;;;;20.38;3.50;;;;;;;9.82;100.00;99496.88;4826554;29;20547;-78
2021/11/07 02:02:34;;;;;;;19.35;3.08;;;;;;;9.92;100.00;99511.66;4841410;29;20038;-78
2021/11/07 02:05:00;;;;;;;23.35;3.58;;;;;;;9.95;100.00;99511.19;4825502;29;20034;-78
2021/11/07 02:07:26;;;;;;;24.50;3.20;;;;;;;9.88;100.00;99489.78;4826056;29;20106;-77
2021/11/07 02:09:52;;;;;;;20.85;2.97;;;;;;;9.99;100.00;99501.63;4843377;29;20456;-78
2021/11/07 02:12:18;;;;;;;25.85;3.55;;;;;;;10.03;100.00;99513.56;4837796;29;20034;-78
2021/11/07 02:14:44;;;;;;;26.88;3.70;;;;;;;10.01;100.00;99503.03;4847446;29;20099;-78
2021/11/07 02:17:11;;;;;;;36.95;4.07;;;;;;;10.03;100.00;99492.91;4849536;29;20018;-79
2021/11/07 02:19:38;;;;;;;25.65;3.72;;;;;;;10.02;100.00;99485.03;4846476;29;20026;-78
2021/11/07 02:22:04;;;;;;;30.55;3.70;;;;;;;10.05;100.00;99485.41;4829265;29;20038;-78
2021/11/07 02:24:30;;;;;;;26.33;3.70;;;;;;;10.07;100.00;99482.50;4843603;29;20381;-79
2021/11/07 02:26:59;;;;;;;27.48;3.22;;;;;;;10.06;100.00;99483.53;4829754;29;20041;-78
2021/11/07 02:29:25;;;;;;;28.67;3.42;;;;;;;10.06;100.00;99478.16;4844580;29;20037;-78
2021/11/07 02:31:55;;;;;;;23.58;3.47;;;;;;;10.06;100.00;99478.16;4827652;29;20036;-78
2021/11/07 02:34:21;;;;;;;30.42;3.60;;;;;;;10.08;100.00;99476.09;4843305;29;20050;-78
2021/11/07 02:36:46;;;;;;;23.80;3.70;;;;;;;10.01;100.00;99462.75;4844470;29;20065;-78
2021/11/07 02:39:15;;;;;;;31.75;4.47;;;;;;;10.06;100.00;99473.59;4844127;29;20350;-78
2021/11/07 02:41:45;;;;;;;26.95;3.50;;;;;;;10.08;100.00;99465.31;4844243;29;20069;-78
2021/11/07 02:44:11;;;;;;;26.60;3.63;;;;;;;10.06;100.00;99470.09;4844246;29;20489;-78
2021/11/07 02:46:36;;;;;;;27.65;3.70;;;;;;;10.08;100.00;99462.63;4844453;29;20038;-77
2021/11/07 02:49:05;;;;;;;34.78;4.53;;;;;;;10.06;100.00;99467.41;4858525;29;20034;-78
2021/11/07 02:51:34;;;;;;;35.53;4.25;;;;;;;10.03;100.00;99449.91;4828640;29;20031;-78
2021/11/07 02:54:03;;;;;;;33.45;4.03;;;;;;;10.06;100.00;99448.59;4844163;29;20049;-78
2021/11/07 02:56:28;;;;;;;33.78;4.85;;;;;;;10.09;100.00;99450.84;4845553;29;20034;-78
2021/11/07 02:58:54;;;;;;;36.17;4.85;;;;;;;10.08;100.00;99446.50;4813227;29;20103;-78
2021/11/07 03:01:24;;;;;;;32.08;5.40;;;;;;;10.11;100.00;99444.19;4852320;29;20465;-78
2021/11/07 03:03:59;;;;;;;33.65;4.25;;;;;;;10.02;100.00;99428.63;4849715;29;20139;-78
2021/11/07 03:06:25;;;;;;;;;;;;;;;10.07;100.00;99442.19;4861126;29;20033;-78
2021/11/07 03:08:51;;;;;;;28.63;4.43;;;;;;;10.09;100.00;99432.84;4864572;29;19912;-78
2021/11/07 03:11:18;;;;;;;32.08;5.25;;;;;;;10.11;100.00;99440.69;4858900;29;20050;-78
2021/11/07 03:13:44;;;;;;;32.72;4.47;;;;;;;10.09;100.00;99438.22;4840251;29;20330;-78
2021/11/07 03:16:13;;;;;;;33.08;4.18;;;;;;;10.08;100.00;99441.13;4864659;29;20376;-78
2021/11/07 03:18:40;;;;;;;35.83;4.70;;;;;;;10.07;100.00;99431.44;4853123;29;20054;-78
2021/11/07 03:21:11;;;;;;;29.00;4.65;;;;;;;10.03;100.00;99439.16;4845014;29;20461;-78
2021/11/07 03:23:43;;;;;;;42.15;5.53;;;;;;;10.02;100.00;99431.31;4847876;29;20048;-79
2021/11/07 03:26:14;;;;;;;46.33;5.63;;;;;;;10.04;100.00;99439.97;4865089;29;20036;-78
2021/11/07 03:28:42;;;;;;;52.67;6.28;;;;;;;10.04;100.00;99437.28;4862855;29;20425;-78
2021/11/07 03:31:36;;;;;;;41.42;5.95;;;;;;;10.05;100.00;99437.03;4847998;29;20026;-79
2021/11/07 03:34:00;;;;;;;45.10;5.10;;;;;;;10.03;100.00;99423.03;4867803;29;20037;-78
2021/11/07 03:36:25;;;;;;;39.22;5.20;;;;;;;9.99;100.00;99431.75;4859675;29;20158;-78
2021/11/07 03:38:54;;;;;;;45.67;5.30;;;;;;;10.00;100.00;99428.84;4845471;29;20116;-77
2021/11/07 03:41:20;;;;;;;47.67;5.97;;;;;;;9.96;100.00;99432.22;4848147;29;20109;-78
2021/11/07 03:43:46;;;;;;;40.50;6.18;;;;;;;9.93;100.00;99425.41;4846955;29;20071;-78
2021/11/07 03:46:13;;;;;;;46.45;6.20;;;;;;;9.93;100.00;99424.59;4828629;29;20529;-78
2021/11/07 03:48:40;;;;;;;45.83;5.82;;;;;;;9.91;100.00;99421.34;4852891;29;20053;-78
2021/11/07 03:51:08;;;;;;;43.72;5.30;;;;;;;9.87;100.00;99413.75;4831296;29;20033;-78
2021/11/07 03:53:33;;;;;;;40.53;5.50;;;;;;;9.82;100.00;99407.41;4861864;29;20414;-78
2021/11/07 03:56:00;;;;;;;49.15;6.07;;;;;;;9.83;100.00;99409.88;4862823;29;20037;-78
2021/11/07 03:58:26;;;;;;;43.42;5.43;;;;;;;9.81;100.00;99424.59;4827354;29;20143;-78
2021/11/07 04:00:51;;;;;;;47.80;5.03;;;;;;;9.80;100.00;99415.72;4846746;29;20129;-78
2021/11/07 04:03:17;;;;;;;40.05;5.55;;;;;;;9.80;100.00;99426.44;4861761;29;20145;-78
2021/11/07 04:05:42;;;;;;;46.30;5.70;;;;;;;9.76;100.00;99425.25;4862977;29;20468;-78
2021/11/07 04:08:08;;;;;;;40.40;5.95;;;;;;;9.77;100.00;99423.41;4827598;29;20050;-78
2021/11/07 04:10:34;;;;;;;42.72;5.82;;;;;;;9.77;100.00;99429.59;4830653;29;20452;-78
2021/11/07 04:13:00;;;;;;;45.97;6.28;;;;;;;9.76;100.00;99419.06;4854405;29;20365;-78
2021/11/07 04:15:27;;;;;;;44.05;6.60;;;;;;;9.76;100.00;99424.44;4827879;29;20098;-78
2021/11/07 04:17:53;;;;;;;49.35;7.25;;;;;;;9.74;100.00;99418.47;4841906;29;20042;-78
2021/11/07 04:20:19;;;;;;;50.67;6.30;;;;;;;9.71;100.00;99418.94;4843474;29;20037;-79
2021/11/07 04:22:47;;;;;;;52.88;7.60;;;;;;;9.64;100.00;99409.09;4844674;29;20109;-78
2021/11/07 04:25:13;;;;;;;49.40;6.75;;;;;;;9.64;100.00;99413.66;4841126;29;20029;-78
2021/11/07 04:27:39;;;;;;;47.88;6.60;;;;;;;9.64;100.00;99419.03;4847785;29;20476;-78
2021/11/07 04:30:06;;;;;;;45.42;6.80;;;;;;;9.57;100.00;99412.91;4846738;29;20042;-78
2021/11/07 04:32:32;;;;;;;46.90;7.25;;;;;;;9.58;100.00;99407.31;4858034;29;20044;-78
2021/11/07 04:34:57;;;;;;;50.13;6.15;;;;;;;9.64;100.00;99408.28;4843977;29;20034;-78
2021/11/07 04:37:23;;;;;;;49.28;6.60;;;;;;;9.66;100.00;99416.91;4848333;29;20485;-78
2021/11/07 04:39:49;;;;;;;52.97;5.82;;;;;;;9.70;100.00;99420.81;4843347;29;20029;-78
2021/11/07 04:42:14;;;;;;;42.90;5.95;;;;;;;9.73;100.00;99414.94;4843627;29;20037;-78
2021/11/07 04:44:40;;;;;;;36.92;5.55;;;;;;;9.73;100.00;99414.94;4825280;29;20034;-78
2021/11/07 04:47:05;;;;;;;44.95;6.43;;;;;;;9.75;100.00;99415.56;4825241;29;20035;-78
2021/11/07 04:49:31;;;;;;;47.45;6.30;;;;;;;9.76;100.00;99403.75;4864598;29;20114;-79
2021/11/07 04:51:58;;;;;;;49.40;6.88;;;;;;;9.72;100.00;99399.06;4827355;29;20034;-78
2021/11/07 04:54:24;;;;;;;46.00;5.50;;;;;;;9.79;100.00;99406.00;4826686;29;20026;-78
2021/11/07 04:56:50;;;;;;;45.67;5.70;;;;;;;9.83;100.00;99409.03;4843021;29;20037;-78
2021/11/07 04:59:16;;;;;;;44.25;6.90;;;;;;;9.80;100.00;99406.81;4842134;29;20022;-79
2021/11/07 05:01:42;;;;;;;41.00;6.57;;;;;;;9.78;100.00;99407.03;4857104;29;20041;-78
2021/11/07 05:04:09;;;;;;;31.70;5.53;;;;;;;9.82;100.00;99410.91;4842749;29;20410;-78
2021/11/07 05:06:36;;;;;;;38.13;5.53;;;;;;;9.74;100.00;99395.13;4849051;29;20072;-79
2021/11/07 05:09:03;;;;;;;36.03;6.65;;;;;;;9.74;100.00;99391.63;4861954;29;20078;-78
2021/11/07 05:11:29;;;;;;;36.58;5.45;;;;;;;9.76;100.00;99400.25;4854874;29;20086;-78
2021/11/07 05:13:54;;;;;;;36.33;5.10;;;;;;;9.75;100.00;99404.81;4829309;29;20046;-78
2021/11/07 05:16:20;;;;;;;37.53;5.65;;;;;;;9.68;100.00;99396.03;4826821;29;20065;-78
2021/11/07 05:18:45;;;;;;;35.47;5.00;;;;;;;9.59;100.00;99373.22;4841872;29;20539;-78
2021/11/07 05:21:11;;;;;;;38.60;5.68;;;;;;;9.75;100.00;99394.06;4842431;29;20038;-78
2021/11/07 05:23:37;;;;;;;30.77;4.68;;;;;;;9.76;100.00;99397.56;4827057;29;20480;-78
2021/11/07 05:26:03;;;;;;;32.58;5.38;;;;;;;9.78;100.00;99414.28;4843018;29;20057;-79
2021/11/07 05:28:28;;;;;;;50.25;5.57;;;;;;;9.74;100.00;99408.56;4840505;29;20030;-79
2021/11/07 05:30:54;;;;;;;34.78;4.90;;;;;;;9.64;100.00;99387.63;4842965;29;20034;-78
2021/11/07 05:33:20;;;;;;;34.72;4.72;;;;;;;9.68;100.00;99398.72;4855982;29;20036;-78
2021/11/07 05:35:45;;;;;;;36.20;4.88;;;;;;;9.70;100.00;99409.22;4842869;29;20037;-78
2021/11/07 05:38:11;;;;;;;28.10;4.47;;;;;;;9.73;100.00;99414.94;4861403;29;20038;-78
2021/11/07 05:40:37;;;;;;;29.52;5.05;;;;;;;9.74;100.00;99407.75;4851234;29;20037;-78
2021/11/07 05:43:03;;;;;;;29.10;3.95;;;;;;;9.68;100.00;99387.97;4842652;29;20022;-78
2021/11/07 05:45:28;;;;;;;23.27;4.15;;;;;;;9.53;100.00;99384.88;4827223;29;20049;-78
2021/11/07 05:47:54;;;;;;;29.17;4.70;;;;;;;9.67;100.00;99409.66;4833780;29;20040;-79
2021/11/07 05:50:21;;;;;;;29.88;4.35;;;;;;;9.64;100.00;99408.28;4847333;29;20037;-78
2021/11/07 05:52:47;;;;;;;23.75;3.67;;;;;;;9.67;100.00;99410.50;4861808;29;20057;-78
2021/11/07 05:55:13;;;;;;;25.92;4.13;;;;;;;9.67;100.00;99415.03;4865747;29;20033;-79
2021/11/07 05:57:39;;;;;;;26.60;4.07;;;;;;;9.64;100.00;99419.03;4864116;29;20054;-78
2021/11/07 06:00:06;;;;;;;21.45;3.30;;;;;;;9.60;100.00;99405.22;4862848;29;20060;-79
2021/11/07 06:02:31;;;;;;;29.50;4.47;;;;;;;9.55;100.00;99402.41;4846637;29;20049;-79
2021/11/07 06:04:57;;;;;;;18.42;2.63;;;;;;;9.46;100.00;99397.56;4854578;29;20033;-79
2021/11/07 06:07:22;;;;;;;18.80;2.72;;;;;;;9.37;100.00;99408.63;4837562;29;20045;-79
2021/11/07 06:09:47;;;;;;;18.83;2.20;;;;;;;9.35;100.00;99410.69;4827201;29;20418;-78
2021/11/07 06:12:14;;;;;;;18.42;2.65;;;;;;;9.19;100.00;99400.56;4838053;29;20571;-78
2021/11/07 06:14:39;;;;;;;21.25;2.55;;;;;;;9.16;100.00;99411.75;4845812;29;20029;-78
2021/11/07 06:17:06;;;;;;;26.45;3.30;;;;;;;9.06;100.00;99403.41;4827502;29;20030;-79
2021/11/07 06:19:32;;;;;;;21.05;3.17;;;;;;;9.10;100.00;99408.09;4828994;29;20037;-79
2021/11/07 06:21:58;;;;;;;26.90;3.85;;;;;;;9.01;100.00;99404.09;4828948;29;20037;-79
2021/11/07 06:24:27;;;;;;;24.63;3.25;;;;;;;9.11;100.00;99419.66;4845766;29;20038;-79
2021/11/07 06:26:56;;;;;;;16.20;3.38;;;;;;;9.12;100.00;99407.88;4846032;29;20034;-79
2021/11/07 06:29:22;;;;;;;22.33;3.38;;;;;;;9.12;100.00;99406.00;4846680;29;20414;-79
2021/11/07 06:31:50;;;;;;;23.77;3.60;;;;;;;8.72;100.00;99335.06;4845182;29;20037;-78
2021/11/07 06:34:16;;;;;;;25.50;3.50;;;;;;;9.23;100.00;99404.44;4833100;29;20036;-79
2021/11/07 06:36:42;;;;;;;21.58;3.45;;;;;;;9.23;100.00;99417.84;4847871;29;20030;-79
2021/11/07 06:39:07;;;;;;;21.38;3.40;;;;;;;9.32;100.00;99410.34;4859409;29;20128;-78
2021/11/07 06:41:33;;;;;;;16.55;3.10;;;;;;;9.34;100.00;99406.38;4845055;29;20373;-79
2021/11/07 06:43:59;;;;;;;25.90;3.65;;;;;;;9.35;100.00;99418.75;4844186;29;20030;-79
2021/11/07 06:46:25;;;;;;;29.02;4.00;;;;;;;9.40;100.00;99420.75;4828762;29;20373;-79
2021/11/07 06:48:50;;;;;;;19.77;3.40;;;;;;;9.38;100.00;99415.63;4828333;29;20322;-78
2021/11/07 06:51:17;;;;;;;23.48;3.30;;;;;;;9.46;100.00;99417.16;4844718;29;20030;-78
2021/11/07 06:53:43;;;;;;;26.83;3.95;;;;;;;9.43;100.00;99401.50;4843718;29;20041;-78
2021/11/07 06:56:10;;;;;;;30.05;3.83;;;;;;;9.56;100.00;99417.44;4845132;29;20111;-78
2021/11/07 06:58:36;;;;;;;29.70;4.07;;;;;;;9.57;100.00;99412.91;4831138;29;20060;-79
2021/11/07 07:01:02;;;;;;;32.55;4.65;;;;;;;9.43;100.00;99398.81;4858355;29;20353;-78
2021/11/07 07:03:28;;;;;;;34.13;4.53;;;;;;;9.53;100.00;99414.41;4862180;29;20121;-79
2021/11/07 07:05:53;;;;;;;24.60;4.18;;;;;;;9.55;100.00;99404.25;4855142;29;20112;-79
2021/11/07 07:08:26;;;;;;;30.92;4.70;;;;;;;9.59;100.00;99408.13;4846058;29;20171;-79
2021/11/07 07:11:02;;;;;;;32.83;5.15;;;;;;;9.63;100.00;99407.47;4835596;29;20048;-78
2021/11/07 07:13:38;;;;;;;31.33;4.68;;;;;;;9.57;100.00;99383.34;4864320;29;20029;-79
2021/11/07 07:32:42;;;;;;;11.68;2.00;;;;;;;9.52;100.00;99397.47;4843560;29;20070;-81
2021/11/07 07:35:08;;;;;;;18.45;3.33;;;;;;;9.59;100.00;99414.31;4846359;29;20072;-79
2021/11/07 07:37:34;;;;;;;23.40;4.13;;;;;;;9.62;100.00;99416.56;4840195;29;20038;-80
2021/11/07 07:39:59;;;;;;;24.67;3.33;;;;;;;9.68;100.00;99403.28;4824914;29;20033;-80
2021/11/07 07:42:25;;;;;;;19.55;3.45;;;;;;;9.71;100.00;99397.44;4854534;29;20117;-80
2021/11/07 07:44:52;;;;;;;26.65;3.67;;;;;;;9.74;100.00;99408.56;4847208;29;20026;-80
2021/11/07 07:47:20;;;;;;;22.30;3.35;;;;;;;9.80;100.00;99410.34;4860709;29;20037;-80
2021/11/07 07:49:51;;;;;;;31.38;4.70;;;;;;;9.64;100.00;99392.97;4848318;29;20033;-81
2021/11/07 07:52:20;;;;;;;20.58;4.18;;;;;;;9.72;100.00;99399.91;4862042;29;20149;-80
2021/11/07 07:54:46;;;;;;;32.75;4.13;;;;;;;9.88;100.00;99407.31;4847296;29;20026;-80
2021/11/07 07:57:12;;;;;;;32.03;4.70;;;;;;;9.82;100.00;99410.91;4844017;29;20171;-79
2021/11/07 07:59:39;;;;;;;30.23;4.32;;;;;;;9.92;100.00;99422.97;4854463;29;20044;-79
2021/11/07 08:02:04;;;;;;;31.20;4.45;;;;;;;9.91;100.00;99424.03;4863613;29;20048;-79
2021/11/07 08:04:30;;;;;;;29.42;4.32;;;;;;;9.93;100.00;99424.59;4827977;29;20033;-79
2021/11/07 08:06:56;;;;;;;27.13;4.65;;;;;;;9.94;100.00;99435.13;4866501;29;20037;-80
2021/11/07 08:09:21;;;;;;;20.58;3.65;;;;;;;9.94;100.00;99420.91;4852560;29;20403;-81
2021/11/07 08:11:47;;;;;;;25.85;4.03;;;;;;;9.88;99.33;99414.56;4865726;29;20456;-80
2021/11/07 08:14:12;;;;;;;25.23;3.58;;;;;;;9.94;99.22;99440.50;4860012;29;20049;-79
2021/11/07 08:16:38;;;;;;;22.92;3.38;;;;;;;9.99;98.98;99437.13;4860920;29;20029;-79
2021/11/07 08:19:05;;;;;;;19.05;3.42;;;;;;;9.98;97.35;99439.00;4859067;29;20048;-79
2021/11/07 08:21:37;;;;;;;17.75;3.15;;;;;;;9.95;96.09;99442.16;4858378;29;20029;-79
2021/11/07 08:24:04;;;;;;;20.92;3.50;;;;;;;9.92;95.36;99431.84;4861804;29;20038;-79
2021/11/07 08:26:32;;;;;;;22.50;3.88;;;;;;;10.02;95.01;99439.38;4849948;29;20033;-79
2021/11/07 08:28:59;;;;;;;18.38;3.80;;;;;;;10.07;94.71;99440.31;4826924;29;20064;-80
2021/11/07 08:31:27;;;;;;;22.02;3.53;;;;;;;10.05;94.20;99436.22;4830350;29;20049;-80
2021/11/07 08:33:52;;;;;;;24.88;3.20;;;;;;;10.11;93.51;99438.00;4843777;29;20366;-79
2021/11/07 08:36:25;;;;;;;16.70;2.95;;;;;;;10.12;93.76;99436.94;4840124;29;20095;-79
2021/11/07 08:38:57;;;;;;;18.55;2.60;;;;;;;10.18;93.74;99446.78;4829181;29;20041;-79
2021/11/07 08:41:23;;;;;;;15.75;3.00;;;;;;;10.17;93.81;99445.16;4841797;29;20037;-78
2021/11/07 09:02:53;;;;;;;16.95;3.42;;;;;;;10.12;91.59;99450.38;4842682;29;20079;-79
2021/11/07 09:05:35;;;;;;;18.45;3.30;;;;;;;10.06;91.79;99452.09;4815195;29;20038;-78
2021/11/07 09:10:34;;;;;;;19.02;3.10;;;;;;;10.08;92.18;99457.25;4824326;29;20243;-79
2021/11/07 09:13:03;;;;;;;16.73;2.83;;;;;;;10.11;92.71;99452.25;4823859;29;20139;-78
2021/11/07 09:15:33;;;;;;;21.42;3.63;;;;;;;10.11;93.40;99446.88;4841315;29;20085;-78
2021/11/07 09:18:00;;;;;;;24.95;3.78;;;;;;;10.15;94.19;99457.16;4840995;29;20539;-78
2021/11/07 09:20:43;;;;;;;15.13;2.47;;;;;;;10.12;93.46;99439.63;4840768;29;20033;-79
2021/11/07 09:28:30;;;;;;;23.60;3.03;;;;;;;10.12;93.68;99453.06;4844628;29;20060;-78
2021/11/07 09:36:10;;;;;;;24.75;3.47;;;;;;;10.19;93.93;99453.78;4846969;29;20030;-78
2021/11/07 09:39:23;;;;;;;38.28;4.40;;;;;;;10.21;94.40;99457.06;4860713;29;20430;-78
2021/11/07 09:41:30;;;;;;;22.90;3.50;;;;;;;10.15;95.17;99452.59;4838847;29;20049;-79
2021/11/07 09:44:09;;;;;;;25.35;3.78;;;;;;;10.12;95.03;99456.56;4854670;29;20036;-78
2021/11/07 09:51:42;;;;;;;18.17;3.08;;;;;;;9.98;94.99;99435.50;4849886;29;20042;-78
2021/11/07 09:54:10;;;;;;;16.67;2.80;;;;;;;10.06;94.27;99470.09;4831155;29;20037;-78
2021/11/07 09:56:35;;;;;;;13.90;2.50;;;;;;;10.03;93.67;99454.44;4844460;29;20430;-78
2021/11/07 09:59:01;;;;;;;13.75;2.45;;;;;;;10.00;94.19;99452.19;4862893;29;20053;-78
2021/11/07 10:01:29;;;;;;;12.82;2.42;;;;;;;9.81;94.66;99457.63;4863670;29;20033;-78
2021/11/07 10:03:55;;;;;;;10.20;1.63;;;;;;;9.75;94.98;99481.91;4863486;29;20487;-78
2021/11/07 10:06:30;;;;;;;15.15;2.15;;;;;;;9.76;95.31;99473.59;4872499;29;20059;-78
2021/11/07 10:08:57;;;;;;;17.90;2.33;;;;;;;9.85;95.74;99477.63;4845336;29;20141;-78
2021/11/07 10:11:30;;;;;;;18.52;2.97;;;;;;;9.87;95.96;99464.78;4844957;29;20045;-78
2021/11/07 10:14:06;;;;;;;12.90;2.30;;;;;;;9.86;93.49;99454.25;4846567;29;20030;-78
2021/11/07 10:16:45;;;;;;;15.73;2.22;;;;;;;10.09;93.10;99475.03;4842347;29;20098;-78
2021/11/07 10:19:40;;;;;;;13.25;2.17;;;;;;;10.16;91.84;99475.75;4829951;29;20030;-78
2021/11/07 10:22:20;;;;;;;13.73;2.05;;;;;;;10.17;90.69;99469.34;4843243;29;20052;-78
2021/11/07 10:24:55;;;;;;;15.23;1.95;;;;;;;10.17;89.93;99482.78;4846120;29;20026;-78
2021/11/07 10:27:21;;;;;;;14.98;3.03;;;;;;;10.19;90.33;99480.66;4845027;29;20033;-78
2021/11/07 10:29:50;;;;;;;12.32;2.20;;;;;;;10.15;91.49;99490.25;4845482;29;20044;-78
2021/11/07 10:32:30;;;;;;;15.32;2.92;;;;;;;10.15;91.37;99479.50;4867367;29;20056;-79
2021/11/07 10:42:18;;;;;;;16.30;2.38;;;;;;;10.32;91.58;99501.19;4838592;29;20501;-78
2021/11/07 10:52:22;;;;;;;12.83;1.90;;;;;;;10.72;88.68;99485.25;4842035;29;20057;-78
2021/11/07 10:54:48;;;;;;;20.15;3.42;;;;;;;10.87;87.56;99497.44;4845650;29;20121;-78
2021/11/07 10:57:16;;;;;;;14.32;2.50;;;;;;;10.86;88.76;99506.56;4845118;29;20128;-78
2021/11/07 11:00:17;;;;;;;15.73;2.05;;;;;;;10.88;87.25;99504.47;4843464;29;20044;-78
2021/11/07 11:02:46;;;;;;;16.63;2.13;;;;;;;10.88;88.09;99507.16;4834395;29;20052;-78
2021/11/07 11:05:38;;;;;;;12.48;1.80;;;;;;;10.77;87.62;99506.91;4846239;29;20038;-78
2021/11/07 11:08:04;;;;;;;16.23;2.38;;;;;;;10.67;88.10;99514.75;4843341;29;20034;-78
2021/11/07 11:10:42;;;;;;;12.80;1.77;;;;;;;10.64;88.67;99500.94;4843685;29;20049;-78
2021/11/07 11:13:23;;;;;;;14.70;2.45;;;;;;;10.77;89.09;99506.91;4843215;29;20078;-78
2021/11/07 11:15:54;;;;;;;17.65;2.53;;;;;;;10.79;89.91;99506.66;4842982;29;20041;-77
2021/11/07 11:18:38;;;;;;;14.52;2.10;;;;;;;10.74;88.41;99507.38;4829753;29;20456;-78
2021/11/07 11:24:11;;;;;;;19.73;3.67;;;;;;;10.57;90.39;99509.09;4843630;29;20052;-78
2021/11/07 11:34:28;;;;;;;16.52;3.17;;;;;;;10.11;95.37;99510.56;4834962;29;20042;-79
2021/11/07 11:39:50;;;;;;;9.38;1.77;;;;;;;10.10;94.27;99517.00;4861441;29;20050;-78
2021/11/07 11:42:24;;;;;;;14.98;2.08;;;;;;;10.02;94.17;99503.84;4841953;29;20026;-79
2021/11/07 11:44:53;;;;;;;14.90;2.30;;;;;;;10.12;93.69;99517.56;4828856;29;20170;-79
2021/11/07 11:48:03;;;;;;;11.45;1.77;;;;;;;10.15;93.08;99519.00;4843885;29;20112;-78
2021/11/07 11:58:42;;;;;;;8.52;1.60;;;;;;;10.37;91.55;99519.34;4844069;29;20125;-79
2021/11/07 12:01:33;;;;;;;8.82;1.73;;;;;;;10.38;91.39;99510.22;4845511;29;20048;-79
2021/11/07 12:04:15;;;;;;;11.57;2.30;;;;;;;10.35;92.60;99516.88;4846033;29;20357;-78
2021/11/07 12:09:34;;;;;;;11.93;1.83;;;;;;;10.22;96.99;99528.59;4863360;29;20041;-79
2021/11/07 12:12:29;;;;;;;11.55;1.15;;;;;;;10.15;98.18;99535.13;4860708;29;20058;-80
2021/11/07 12:14:56;;;;;;;14.15;1.65;;;;;;;10.04;100.00;99534.84;4846997;29;20036;-79
2021/11/07 12:17:27;;;;;;;4.63;0.90;;;;;;;10.01;100.00;99542.53;4831243;29;20046;-79
2021/11/07 12:19:53;;;;;;;3.67;0.70;;;;;;;9.95;100.00;99543.44;4843339;29;20373;-80
2021/11/07 12:22:24;;;;;;;6.75;1.00;;;;;;;9.87;100.00;99541.88;4843709;29;20087;-79
2021/11/07 12:24:50;;;;;;;6.90;1.17;;;;;;;9.81;100.00;99554.34;4843326;29;20059;-79
2021/11/07 12:27:25;;;;;;;9.02;1.33;;;;;;;9.78;100.00;99549.41;4844750;29;20469;-78
2021/11/07 12:30:17;;;;;;;8.23;1.08;;;;;;;9.72;100.00;99553.00;4845091;29;20033;-79
2021/11/07 12:32:46;;;;;;;7.10;1.10;;;;;;;9.62;100.00;99558.88;4855309;29;20026;-80
2021/11/07 12:35:42;;;;;;;4.30;0.85;;;;;;;9.57;100.00;99557.91;4837668;29;20022;-79
2021/11/07 12:41:06;;;;;;;8.48;1.30;;;;;;;9.58;100.00;99567.63;4846870;29;20133;-79
2021/11/07 12:43:34;;;;;;;5.70;1.27;;;;;;;9.50;100.00;99574.09;4841378;29;20068;-79
2021/11/07 12:46:12;;;;;;;8.75;1.80;;;;;;;9.41;100.00;99570.88;4844655;29;20030;-79
2021/11/07 12:48:45;;;;;;;9.43;1.30;;;;;;;9.40;100.00;99573.78;4843798;29;20065;-78
2021/11/07 12:51:42;;;;;;;6.10;0.93;;;;;;;9.38;100.00;99570.50;4826860;29;20038;-79
2021/11/07 12:54:13;;;;;;;4.50;0.80;;;;;;;9.35;100.00;99576.31;4856201;29;20066;-79
2021/11/07 12:56:41;;;;;;;4.82;0.93;;;;;;;9.31;100.00;99586.69;4867353;29;20049;-79
2021/11/07 12:59:17;;;;;;;5.60;1.05;;;;;;;9.32;100.00;99598.25;4859001;29;20041;-79
2021/11/07 13:02:22;;;;;;;6.15;0.90;;;;;;;9.30;100.00;99586.88;4851917;29;20038;-79
2021/11/07 13:05:25;;;;;;;5.25;0.90;;;;;;;9.26;100.00;99588.38;4857751;29;20038;-79
2021/11/07 13:08:01;;;;;;;6.00;1.08;;;;;;;9.22;100.00;99604.09;4843451;29;20026;-79
2021/11/07 13:13:16;;;;;;;5.45;0.80;;;;;;;9.13;100.00;99592.81;4842495;29;20124;-81
2021/11/07 13:24:06;;;;;;;5.68;1.30;;;;;;;9.21;100.00;99615.91;4853714;29;20444;-80
2021/11/07 13:27:26;;;;;;;4.63;0.80;;;;;;;9.20;100.00;99621.47;4874750;29;20053;-81
2021/11/07 13:29:36;;;;;;;4.85;1.08;;;;;;;9.16;100.00;99626.44;4843379;29;20038;-79
2021/11/07 13:34:56;;;;;;;3.63;0.90;;;;;;;9.11;100.00;99632.47;4846680;29;20022;-82
2021/11/07 13:37:50;;;;;;;4.32;0.68;;;;;;;9.04;100.00;99638.91;4825492;29;20057;-80
2021/11/07 13:40:31;;;;;;;3.22;0.63;;;;;;;9.07;100.00;99649.22;4838273;29;20063;-80
2021/11/07 13:43:13;;;;;;;5.93;0.60;;;;;;;9.05;100.00;99648.63;4840420;29;20036;-79
2021/11/07 13:45:41;;;;;;;3.47;0.50;;;;;;;9.02;100.00;99651.75;4840686;29;20110;-79
2021/11/07 13:48:33;;;;;;;4.32;0.70;;;;;;;9.02;100.00;99662.47;4839154;29;20034;-80
2021/11/07 13:51:01;;;;;;;3.28;0.93;;;;;;;9.02;100.00;99662.47;4846732;29;20076;-79
2021/11/07 13:53:38;;;;;;;3.30;0.68;;;;;;;8.82;100.00;99649.19;4828033;29;20532;-79
2021/11/07 13:56:07;;;;;;;3.63;0.63;;;;;;;8.90;100.00;99663.16;4859107;29;20075;-80
2021/11/07 13:58:34;;;;;;;3.42;0.50;;;;;;;8.88;100.00;99675.16;4830903;29;20045;-79
2021/11/07 14:01:07;;;;;;;2.47;0.52;;;;;;;8.90;100.00;99686.47;4841687;29;20484;-80